sensor_id;sensor_type;location;lat;lon;timestamp;P1;durP1;ratioP1;P2;durP2;ratioP2
54384;SDS011;40284;52.878;5.998;2023-02-03T00:00:45;8.65;;;1.70;;
54384;SDS011;40284;52.878;5.998;2023-02-03T00:03:11;13.07;;;3.00;;
54384;SDS011;40284;52.878;5.998;2023-02-03T00:05:37;13.45;;;2.28;;
54384;SDS011;40284;52.878;5.998;2023-02-03T00:08:04;7.43;;;2.00;;
54384;SDS011;40284;52.878;5.998;2023-02-03T00:10:35;9.48;;;2.50;;
54384;SDS011;40284;52.878;5.998;2023-02-03T00:13:01;12.63;;;2.63;;
54384;SDS011;40284;52.878;5.998;2023-02-03T00:15:28;13.88;;;2.83;;
54384;SDS011;40284;52.878;5.998;2023-02-03T00:17:54;12.30;;;2.53;;
54384;SDS011;40284;52.878;5.998;2023-02-03T00:20:20;12.13;;;4.10;;
54384;SDS011;40284;52.878;5.998;2023-02-03T00:22:46;12.25;;;2.88;;
54384;SDS011;40284;52.878;5.998;2023-02-03T00:25:12;13.93;;;3.30;;
54384;SDS011;40284;52.878;5.998;2023-02-03T00:27:39;11.40;;;3.30;;
54384;SDS011;40284;52.878;5.998;2023-02-03T00:30:05;15.00;;;3.53;;
54384;SDS011;40284;52.878;5.998;2023-02-03T00:32:31;14.15;;;3.60;;
54384;SDS011;40284;52.878;5.998;2023-02-03T00:34:57;10.25;;;2.65;;
54384;SDS011;40284;52.878;5.998;2023-02-03T00:37:23;10.98;;;3.25;;
54384;SDS011;40284;52.878;5.998;2023-02-03T00:39:49;11.68;;;3.00;;
54384;SDS011;40284;52.878;5.998;2023-02-03T00:42:15;11.50;;;3.30;;
54384;SDS011;40284;52.878;5.998;2023-02-03T00:44:41;16.08;;;3.63;;
54384;SDS011;40284;52.878;5.998;2023-02-03T00:47:07;15.98;;;4.07;;
54384;SDS011;40284;52.878;5.998;2023-02-03T00:49:33;17.20;;;4.38;;
54384;SDS011;40284;52.878;5.998;2023-02-03T00:51:59;12.40;;;3.80;;
54384;SDS011;40284;52.878;5.998;2023-02-03T00:54:26;13.48;;;3.67;;
54384;SDS011;40284;52.878;5.998;2023-02-03T00:56:52;15.77;;;4.32;;
54384;SDS011;40284;52.878;5.998;2023-02-03T00:59:18;11.60;;;3.25;;
54384;SDS011;40284;52.878;5.998;2023-02-03T01:01:44;20.25;;;6.22;;
54384;SDS011;40284;52.878;5.998;2023-02-03T01:04:10;17.10;;;3.72;;
54384;SDS011;40284;52.878;5.998;2023-02-03T01:06:36;13.88;;;3.58;;
54384;SDS011;40284;52.878;5.998;2023-02-03T01:09:02;15.52;;;3.28;;
54384;SDS011;40284;52.878;5.998;2023-02-03T01:11:28;14.15;;;3.17;;
54384;SDS011;40284;52.878;5.998;2023-02-03T01:13:55;11.27;;;4.55;;
54384;SDS011;40284;52.878;5.998;2023-02-03T01:16:23;18.48;;;3.55;;
54384;SDS011;40284;52.878;5.998;2023-02-03T01:18:49;10.48;;;3.80;;
54384;SDS011;40284;52.878;5.998;2023-02-03T01:21:17;10.73;;;3.10;;
54384;SDS011;40284;52.878;5.998;2023-02-03T01:23:43;25.13;;;4.20;;
54384;SDS011;40284;52.878;5.998;2023-02-03T01:26:11;13.93;;;3.58;;
54384;SDS011;40284;52.878;5.998;2023-02-03T01:28:37;11.50;;;3.35;;
54384;SDS011;40284;52.878;5.998;2023-02-03T01:31:14;13.23;;;3.20;;
54384;SDS011;40284;52.878;5.998;2023-02-03T01:33:41;13.57;;;3.42;;
54384;SDS011;40284;52.878;5.998;2023-02-03T01:36:10;12.85;;;2.95;;
54384;SDS011;40284;52.878;5.998;2023-02-03T01:38:37;10.18;;;2.38;;
54384;SDS011;40284;52.878;5.998;2023-02-03T01:41:03;7.55;;;2.17;;
54384;SDS011;40284;52.878;5.998;2023-02-03T01:43:34;8.73;;;2.47;;
54384;SDS011;40284;52.878;5.998;2023-02-03T01:46:04;13.48;;;3.08;;
54384;SDS011;40284;52.878;5.998;2023-02-03T01:48:31;16.30;;;3.67;;
54384;SDS011;40284;52.878;5.998;2023-02-03T01:50:59;11.65;;;2.53;;
54384;SDS011;40284;52.878;5.998;2023-02-03T01:53:27;16.65;;;3.13;;
54384;SDS011;40284;52.878;5.998;2023-02-03T01:55:53;12.02;;;3.33;;
54384;SDS011;40284;52.878;5.998;2023-02-03T01:58:20;18.38;;;3.38;;
54384;SDS011;40284;52.878;5.998;2023-02-03T02:00:49;12.18;;;2.75;;
54384;SDS011;40284;52.878;5.998;2023-02-03T02:03:20;16.95;;;2.83;;
54384;SDS011;40284;52.878;5.998;2023-02-03T02:05:49;10.88;;;2.53;;
54384;SDS011;40284;52.878;5.998;2023-02-03T02:08:17;11.68;;;2.63;;
54384;SDS011;40284;52.878;5.998;2023-02-03T02:10:46;9.52;;;2.58;;
54384;SDS011;40284;52.878;5.998;2023-02-03T02:13:13;11.55;;;3.15;;
54384;SDS011;40284;52.878;5.998;2023-02-03T02:23:25;14.30;;;3.13;;
54384;SDS011;40284;52.878;5.998;2023-02-03T02:33:42;10.63;;;2.80;;
54384;SDS011;40284;52.878;5.998;2023-02-03T02:38:52;13.98;;;2.60;;
54384;SDS011;40284;52.878;5.998;2023-02-03T02:43:58;16.05;;;2.97;;
54384;SDS011;40284;52.878;5.998;2023-02-03T02:48:56;15.32;;;2.92;;
54384;SDS011;40284;52.878;5.998;2023-02-03T02:51:24;12.90;;;3.22;;
54384;SDS011;40284;52.878;5.998;2023-02-03T02:53:56;13.93;;;3.80;;
54384;SDS011;40284;52.878;5.998;2023-02-03T02:56:24;13.93;;;3.97;;
54384;SDS011;40284;52.878;5.998;2023-02-03T02:58:51;11.73;;;3.25;;
54384;SDS011;40284;52.878;5.998;2023-02-03T03:01:18;11.18;;;2.63;;
54384;SDS011;40284;52.878;5.998;2023-02-03T03:03:44;10.65;;;4.03;;
54384;SDS011;40284;52.878;5.998;2023-02-03T03:06:32;15.32;;;3.35;;
54384;SDS011;40284;52.878;5.998;2023-02-03T03:08:58;16.42;;;3.50;;
54384;SDS011;40284;52.878;5.998;2023-02-03T03:11:26;15.63;;;3.63;;
54384;SDS011;40284;52.878;5.998;2023-02-03T03:13:53;14.63;;;2.53;;
54384;SDS011;40284;52.878;5.998;2023-02-03T03:16:22;9.73;;;3.05;;
54384;SDS011;40284;52.878;5.998;2023-02-03T03:18:49;11.23;;;3.03;;
54384;SDS011;40284;52.878;5.998;2023-02-03T03:21:19;17.48;;;3.10;;
54384;SDS011;40284;52.878;5.998;2023-02-03T03:23:47;10.45;;;2.40;;
54384;SDS011;40284;52.878;5.998;2023-02-03T03:26:22;15.32;;;3.13;;
54384;SDS011;40284;52.878;5.998;2023-02-03T03:28:53;9.50;;;2.78;;
54384;SDS011;40284;52.878;5.998;2023-02-03T03:31:22;11.32;;;2.75;;
54384;SDS011;40284;52.878;5.998;2023-02-03T03:33:49;9.25;;;2.20;;
54384;SDS011;40284;52.878;5.998;2023-02-03T03:44:05;18.80;;;3.05;;
54384;SDS011;40284;52.878;5.998;2023-02-03T03:46:40;14.90;;;2.80;;
54384;SDS011;40284;52.878;5.998;2023-02-03T03:49:08;11.80;;;2.75;;
54384;SDS011;40284;52.878;5.998;2023-02-03T03:52:09;14.85;;;2.83;;
54384;SDS011;40284;52.878;5.998;2023-02-03T03:54:28;12.35;;;3.08;;
54384;SDS011;40284;52.878;5.998;2023-02-03T03:59:29;15.43;;;2.63;;
54384;SDS011;40284;52.878;5.998;2023-02-03T04:01:56;16.02;;;2.80;;
54384;SDS011;40284;52.878;5.998;2023-02-03T04:04:23;9.63;;;2.40;;
54384;SDS011;40284;52.878;5.998;2023-02-03T04:06:51;17.42;;;2.83;;
54384;SDS011;40284;52.878;5.998;2023-02-03T04:09:18;10.20;;;2.55;;
54384;SDS011;40284;52.878;5.998;2023-02-03T04:11:44;10.52;;;2.83;;
54384;SDS011;40284;52.878;5.998;2023-02-03T04:14:26;9.52;;;2.53;;
54384;SDS011;40284;52.878;5.998;2023-02-03T04:16:54;13.40;;;2.70;;
54384;SDS011;40284;52.878;5.998;2023-02-03T04:19:20;18.02;;;3.28;;
54384;SDS011;40284;52.878;5.998;2023-02-03T04:21:46;14.82;;;2.33;;
54384;SDS011;40284;52.878;5.998;2023-02-03T04:24:12;21.23;;;3.03;;
54384;SDS011;40284;52.878;5.998;2023-02-03T04:26:38;14.23;;;2.53;;
54384;SDS011;40284;52.878;5.998;2023-02-03T04:29:04;18.25;;;3.72;;
54384;SDS011;40284;52.878;5.998;2023-02-03T04:31:30;20.95;;;4.50;;
54384;SDS011;40284;52.878;5.998;2023-02-03T04:33:56;16.90;;;3.58;;
54384;SDS011;40284;52.878;5.998;2023-02-03T04:36:22;14.90;;;3.00;;
54384;SDS011;40284;52.878;5.998;2023-02-03T04:38:48;15.07;;;3.33;;
54384;SDS011;40284;52.878;5.998;2023-02-03T04:41:14;13.07;;;2.58;;
54384;SDS011;40284;52.878;5.998;2023-02-03T04:43:41;16.30;;;3.85;;
54384;SDS011;40284;52.878;5.998;2023-02-03T04:46:07;18.17;;;3.97;;
54384;SDS011;40284;52.878;5.998;2023-02-03T04:48:34;16.95;;;2.65;;
54384;SDS011;40284;52.878;5.998;2023-02-03T04:51:00;18.92;;;3.60;;
54384;SDS011;40284;52.878;5.998;2023-02-03T04:53:27;15.25;;;2.95;;
54384;SDS011;40284;52.878;5.998;2023-02-03T04:55:53;12.50;;;2.88;;
54384;SDS011;40284;52.878;5.998;2023-02-03T04:58:19;12.77;;;2.67;;
54384;SDS011;40284;52.878;5.998;2023-02-03T05:00:45;16.20;;;3.13;;
54384;SDS011;40284;52.878;5.998;2023-02-03T05:03:12;14.50;;;2.92;;
54384;SDS011;40284;52.878;5.998;2023-02-03T05:05:38;14.57;;;2.45;;
54384;SDS011;40284;52.878;5.998;2023-02-03T05:08:04;16.05;;;3.85;;
54384;SDS011;40284;52.878;5.998;2023-02-03T05:10:30;12.38;;;3.35;;
54384;SDS011;40284;52.878;5.998;2023-02-03T05:12:56;13.90;;;3.20;;
54384;SDS011;40284;52.878;5.998;2023-02-03T05:15:22;14.77;;;2.60;;
54384;SDS011;40284;52.878;5.998;2023-02-03T05:17:50;13.75;;;3.28;;
54384;SDS011;40284;52.878;5.998;2023-02-03T05:20:16;15.60;;;2.78;;
54384;SDS011;40284;52.878;5.998;2023-02-03T05:22:43;12.30;;;2.83;;
54384;SDS011;40284;52.878;5.998;2023-02-03T05:25:09;8.52;;;2.55;;
54384;SDS011;40284;52.878;5.998;2023-02-03T05:27:36;18.15;;;3.45;;
54384;SDS011;40284;52.878;5.998;2023-02-03T05:30:03;13.93;;;2.65;;
54384;SDS011;40284;52.878;5.998;2023-02-03T05:32:29;16.70;;;2.80;;
54384;SDS011;40284;52.878;5.998;2023-02-03T05:34:55;12.52;;;3.38;;
54384;SDS011;40284;52.878;5.998;2023-02-03T05:37:21;14.05;;;2.80;;
54384;SDS011;40284;52.878;5.998;2023-02-03T05:39:47;11.43;;;3.05;;
54384;SDS011;40284;52.878;5.998;2023-02-03T05:42:13;14.07;;;3.03;;
54384;SDS011;40284;52.878;5.998;2023-02-03T05:44:39;12.43;;;2.78;;
54384;SDS011;40284;52.878;5.998;2023-02-03T05:47:06;18.23;;;3.20;;
54384;SDS011;40284;52.878;5.998;2023-02-03T05:49:32;16.95;;;3.78;;
54384;SDS011;40284;52.878;5.998;2023-02-03T05:51:58;15.40;;;3.25;;
54384;SDS011;40284;52.878;5.998;2023-02-03T05:54:24;10.45;;;2.80;;
54384;SDS011;40284;52.878;5.998;2023-02-03T05:56:50;10.98;;;3.00;;
54384;SDS011;40284;52.878;5.998;2023-02-03T05:59:17;13.48;;;3.03;;
54384;SDS011;40284;52.878;5.998;2023-02-03T06:01:43;13.93;;;2.80;;
54384;SDS011;40284;52.878;5.998;2023-02-03T06:04:09;9.10;;;2.90;;
54384;SDS011;40284;52.878;5.998;2023-02-03T06:06:35;13.90;;;3.10;;
54384;SDS011;40284;52.878;5.998;2023-02-03T06:09:02;14.07;;;3.03;;
54384;SDS011;40284;52.878;5.998;2023-02-03T06:11:29;12.80;;;3.15;;
54384;SDS011;40284;52.878;5.998;2023-02-03T06:13:55;11.60;;;2.75;;
54384;SDS011;40284;52.878;5.998;2023-02-03T06:16:23;14.40;;;3.38;;
54384;SDS011;40284;52.878;5.998;2023-02-03T06:18:49;18.15;;;3.90;;
54384;SDS011;40284;52.878;5.998;2023-02-03T06:21:16;16.17;;;3.83;;
54384;SDS011;40284;52.878;5.998;2023-02-03T06:23:42;20.48;;;4.10;;
54384;SDS011;40284;52.878;5.998;2023-02-03T06:26:08;15.68;;;3.90;;
54384;SDS011;40284;52.878;5.998;2023-02-03T06:28:34;17.85;;;3.55;;
54384;SDS011;40284;52.878;5.998;2023-02-03T06:31:02;17.42;;;3.47;;
54384;SDS011;40284;52.878;5.998;2023-02-03T06:33:28;20.70;;;3.15;;
54384;SDS011;40284;52.878;5.998;2023-02-03T06:35:54;18.38;;;3.72;;
54384;SDS011;40284;52.878;5.998;2023-02-03T06:38:20;18.60;;;3.78;;
54384;SDS011;40284;52.878;5.998;2023-02-03T06:40:47;18.23;;;3.65;;
54384;SDS011;40284;52.878;5.998;2023-02-03T06:43:13;10.40;;;3.10;;
54384;SDS011;40284;52.878;5.998;2023-02-03T06:45:39;15.70;;;3.60;;
54384;SDS011;40284;52.878;5.998;2023-02-03T06:48:06;14.65;;;2.95;;
54384;SDS011;40284;52.878;5.998;2023-02-03T06:50:32;17.10;;;4.00;;
54384;SDS011;40284;52.878;5.998;2023-02-03T06:52:58;17.73;;;3.92;;
54384;SDS011;40284;52.878;5.998;2023-02-03T06:55:26;25.67;;;4.10;;
54384;SDS011;40284;52.878;5.998;2023-02-03T06:57:52;12.60;;;4.35;;
54384;SDS011;40284;52.878;5.998;2023-02-03T07:00:18;18.33;;;3.55;;
54384;SDS011;40284;52.878;5.998;2023-02-03T07:02:45;13.75;;;3.60;;
54384;SDS011;40284;52.878;5.998;2023-02-03T07:05:11;19.13;;;4.63;;
54384;SDS011;40284;52.878;5.998;2023-02-03T07:07:37;21.25;;;4.15;;
54384;SDS011;40284;52.878;5.998;2023-02-03T07:10:04;12.77;;;3.90;;
54384;SDS011;40284;52.878;5.998;2023-02-03T07:12:30;16.33;;;3.88;;
54384;SDS011;40284;52.878;5.998;2023-02-03T07:14:56;14.95;;;3.30;;
54384;SDS011;40284;52.878;5.998;2023-02-03T07:17:22;9.02;;;3.20;;
54384;SDS011;40284;52.878;5.998;2023-02-03T07:19:48;9.48;;;3.28;;
54384;SDS011;40284;52.878;5.998;2023-02-03T07:22:14;13.57;;;3.42;;
54384;SDS011;40284;52.878;5.998;2023-02-03T07:24:40;14.38;;;4.47;;
54384;SDS011;40284;52.878;5.998;2023-02-03T07:27:06;13.82;;;3.35;;
54384;SDS011;40284;52.878;5.998;2023-02-03T07:29:33;14.50;;;3.75;;
54384;SDS011;40284;52.878;5.998;2023-02-03T07:31:59;15.50;;;3.70;;
54384;SDS011;40284;52.878;5.998;2023-02-03T07:34:26;14.70;;;3.45;;
54384;SDS011;40284;52.878;5.998;2023-02-03T07:36:53;16.20;;;4.43;;
54384;SDS011;40284;52.878;5.998;2023-02-03T07:39:19;23.30;;;4.22;;
54384;SDS011;40284;52.878;5.998;2023-02-03T07:41:45;21.52;;;4.95;;
54384;SDS011;40284;52.878;5.998;2023-02-03T07:44:11;17.25;;;3.65;;
54384;SDS011;40284;52.878;5.998;2023-02-03T07:46:38;18.23;;;5.07;;
54384;SDS011;40284;52.878;5.998;2023-02-03T07:49:09;15.68;;;4.78;;
54384;SDS011;40284;52.878;5.998;2023-02-03T07:51:35;16.77;;;3.50;;
54384;SDS011;40284;52.878;5.998;2023-02-03T07:54:01;17.13;;;4.63;;
54384;SDS011;40284;52.878;5.998;2023-02-03T07:56:27;16.38;;;3.53;;
54384;SDS011;40284;52.878;5.998;2023-02-03T07:58:56;18.27;;;4.00;;
54384;SDS011;40284;52.878;5.998;2023-02-03T08:01:22;18.00;;;3.85;;
54384;SDS011;40284;52.878;5.998;2023-02-03T08:03:49;17.88;;;3.40;;
54384;SDS011;40284;52.878;5.998;2023-02-03T08:06:15;24.92;;;4.20;;
54384;SDS011;40284;52.878;5.998;2023-02-03T08:08:41;23.42;;;4.15;;
54384;SDS011;40284;52.878;5.998;2023-02-03T08:11:07;15.27;;;3.78;;
54384;SDS011;40284;52.878;5.998;2023-02-03T08:13:34;22.05;;;4.22;;
54384;SDS011;40284;52.878;5.998;2023-02-03T08:16:00;15.35;;;3.67;;
54384;SDS011;40284;52.878;5.998;2023-02-03T08:18:26;13.60;;;3.72;;
54384;SDS011;40284;52.878;5.998;2023-02-03T08:20:52;19.35;;;4.05;;
54384;SDS011;40284;52.878;5.998;2023-02-03T08:23:18;20.65;;;4.40;;
54384;SDS011;40284;52.878;5.998;2023-02-03T08:25:44;18.45;;;3.60;;
54384;SDS011;40284;52.878;5.998;2023-02-03T08:28:14;27.95;;;5.78;;
54384;SDS011;40284;52.878;5.998;2023-02-03T08:30:40;21.00;;;4.03;;
54384;SDS011;40284;52.878;5.998;2023-02-03T08:33:06;15.05;;;4.22;;
54384;SDS011;40284;52.878;5.998;2023-02-03T08:35:32;23.88;;;4.95;;
54384;SDS011;40284;52.878;5.998;2023-02-03T08:37:58;24.17;;;4.22;;
54384;SDS011;40284;52.878;5.998;2023-02-03T08:40:25;21.92;;;4.25;;
54384;SDS011;40284;52.878;5.998;2023-02-03T08:42:51;18.83;;;3.58;;
54384;SDS011;40284;52.878;5.998;2023-02-03T08:45:17;17.52;;;4.10;;
54384;SDS011;40284;52.878;5.998;2023-02-03T08:47:43;23.23;;;4.78;;
54384;SDS011;40284;52.878;5.998;2023-02-03T08:50:09;21.23;;;5.00;;
54384;SDS011;40284;52.878;5.998;2023-02-03T08:52:35;18.13;;;3.65;;
54384;SDS011;40284;52.878;5.998;2023-02-03T08:55:01;17.77;;;4.22;;
54384;SDS011;40284;52.878;5.998;2023-02-03T08:57:34;23.75;;;4.55;;
54384;SDS011;40284;52.878;5.998;2023-02-03T09:00:02;17.45;;;4.20;;
54384;SDS011;40284;52.878;5.998;2023-02-03T09:02:28;18.10;;;3.97;;
54384;SDS011;40284;52.878;5.998;2023-02-03T09:04:54;29.67;;;4.35;;
54384;SDS011;40284;52.878;5.998;2023-02-03T09:07:20;13.57;;;4.25;;
54384;SDS011;40284;52.878;5.998;2023-02-03T09:09:47;19.85;;;3.80;;
54384;SDS011;40284;52.878;5.998;2023-02-03T09:12:13;21.75;;;4.88;;
54384;SDS011;40284;52.878;5.998;2023-02-03T09:14:39;20.38;;;4.68;;
54384;SDS011;40284;52.878;5.998;2023-02-03T09:17:05;14.80;;;4.07;;
54384;SDS011;40284;52.878;5.998;2023-02-03T09:19:32;16.30;;;4.35;;
54384;SDS011;40284;52.878;5.998;2023-02-03T09:21:58;21.48;;;6.20;;
54384;SDS011;40284;52.878;5.998;2023-02-03T09:24:24;25.25;;;4.53;;
54384;SDS011;40284;52.878;5.998;2023-02-03T09:26:51;18.73;;;3.72;;
54384;SDS011;40284;52.878;5.998;2023-02-03T09:29:18;24.20;;;5.50;;
54384;SDS011;40284;52.878;5.998;2023-02-03T09:31:45;34.50;;;5.20;;
54384;SDS011;40284;52.878;5.998;2023-02-03T09:34:12;23.05;;;4.00;;
54384;SDS011;40284;52.878;5.998;2023-02-03T09:36:38;23.10;;;6.68;;
54384;SDS011;40284;52.878;5.998;2023-02-03T09:39:04;12.77;;;3.78;;
54384;SDS011;40284;52.878;5.998;2023-02-03T09:46:47;29.27;;;4.93;;
54384;SDS011;40284;52.878;5.998;2023-02-03T09:49:16;27.35;;;4.72;;
54384;SDS011;40284;52.878;5.998;2023-02-03T09:54:25;24.48;;;4.95;;
54384;SDS011;40284;52.878;5.998;2023-02-03T09:56:52;19.27;;;5.30;;
54384;SDS011;40284;52.878;5.998;2023-02-03T09:59:20;25.38;;;5.97;;
54384;SDS011;40284;52.878;5.998;2023-02-03T10:04:23;23.27;;;4.60;;
54384;SDS011;40284;52.878;5.998;2023-02-03T10:06:54;19.35;;;5.38;;
54384;SDS011;40284;52.878;5.998;2023-02-03T10:09:33;23.90;;;4.82;;
54384;SDS011;40284;52.878;5.998;2023-02-03T10:12:18;25.17;;;5.20;;
54384;SDS011;40284;52.878;5.998;2023-02-03T10:18:23;29.63;;;6.10;;
54384;SDS011;40284;52.878;5.998;2023-02-03T10:22:55;25.08;;;5.10;;
54384;SDS011;40284;52.878;5.998;2023-02-03T10:25:34;24.92;;;5.38;;
54384;SDS011;40284;52.878;5.998;2023-02-03T10:28:04;26.30;;;5.53;;
54384;SDS011;40284;52.878;5.998;2023-02-03T10:30:36;26.75;;;5.20;;
54384;SDS011;40284;52.878;5.998;2023-02-03T10:33:10;28.30;;;5.50;;
54384;SDS011;40284;52.878;5.998;2023-02-03T10:38:25;19.63;;;4.53;;
54384;SDS011;40284;52.878;5.998;2023-02-03T10:40:57;34.67;;;5.05;;
54384;SDS011;40284;52.878;5.998;2023-02-03T10:43:23;25.92;;;6.05;;
54384;SDS011;40284;52.878;5.998;2023-02-03T10:46:08;23.70;;;5.75;;
54384;SDS011;40284;52.878;5.998;2023-02-03T10:48:34;29.00;;;5.65;;
54384;SDS011;40284;52.878;5.998;2023-02-03T10:51:01;33.78;;;5.93;;
54384;SDS011;40284;52.878;5.998;2023-02-03T10:53:34;32.20;;;6.75;;
54384;SDS011;40284;52.878;5.998;2023-02-03T10:56:02;29.08;;;6.03;;
54384;SDS011;40284;52.878;5.998;2023-02-03T10:58:29;25.63;;;5.32;;
54384;SDS011;40284;52.878;5.998;2023-02-03T11:01:10;33.40;;;6.40;;
54384;SDS011;40284;52.878;5.998;2023-02-03T11:03:37;29.02;;;5.82;;
54384;SDS011;40284;52.878;5.998;2023-02-03T11:06:09;27.33;;;5.30;;
54384;SDS011;40284;52.878;5.998;2023-02-03T11:08:37;33.75;;;6.22;;
54384;SDS011;40284;52.878;5.998;2023-02-03T11:11:04;29.15;;;5.43;;
54384;SDS011;40284;52.878;5.998;2023-02-03T11:13:31;30.00;;;6.25;;
54384;SDS011;40284;52.878;5.998;2023-02-03T11:20:52;42.40;;;7.38;;
54384;SDS011;40284;52.878;5.998;2023-02-03T11:23:18;34.67;;;8.68;;
54384;SDS011;40284;52.878;5.998;2023-02-03T11:25:45;50.92;;;7.65;;
54384;SDS011;40284;52.878;5.998;2023-02-03T11:28:11;33.42;;;7.85;;
54384;SDS011;40284;52.878;5.998;2023-02-03T11:30:38;39.17;;;8.02;;
54384;SDS011;40284;52.878;5.998;2023-02-03T11:33:14;34.08;;;5.85;;
54384;SDS011;40284;52.878;5.998;2023-02-03T11:35:50;32.40;;;6.57;;
54384;SDS011;40284;52.878;5.998;2023-02-03T11:38:28;35.88;;;7.10;;
54384;SDS011;40284;52.878;5.998;2023-02-03T11:40:58;31.00;;;6.90;;
54384;SDS011;40284;52.878;5.998;2023-02-03T11:43:27;38.13;;;9.00;;
54384;SDS011;40284;52.878;5.998;2023-02-03T11:45:58;35.80;;;6.57;;
54384;SDS011;40284;52.878;5.998;2023-02-03T11:51:16;34.97;;;8.40;;
54384;SDS011;40284;52.878;5.998;2023-02-03T11:56:34;39.78;;;8.40;;
54384;SDS011;40284;52.878;5.998;2023-02-03T11:59:49;38.33;;;6.55;;
54384;SDS011;40284;52.878;5.998;2023-02-03T12:07:33;31.50;;;6.07;;
54384;SDS011;40284;52.878;5.998;2023-02-03T12:10:04;35.53;;;6.78;;
54384;SDS011;40284;52.878;5.998;2023-02-03T12:17:48;42.20;;;8.13;;
54384;SDS011;40284;52.878;5.998;2023-02-03T12:30:37;35.78;;;6.82;;
54384;SDS011;40284;52.878;5.998;2023-02-03T12:33:05;43.65;;;8.00;;
54384;SDS011;40284;52.878;5.998;2023-02-03T12:35:37;47.67;;;10.95;;
54384;SDS011;40284;52.878;5.998;2023-02-03T12:38:06;41.92;;;7.88;;
54384;SDS011;40284;52.878;5.998;2023-02-03T12:45:31;41.05;;;7.35;;
54384;SDS011;40284;52.878;5.998;2023-02-03T12:48:00;40.47;;;6.65;;
54384;SDS011;40284;52.878;5.998;2023-02-03T12:50:31;39.15;;;7.97;;
54384;SDS011;40284;52.878;5.998;2023-02-03T12:55:36;39.70;;;8.32;;
54384;SDS011;40284;52.878;5.998;2023-02-03T12:58:05;40.67;;;7.68;;
54384;SDS011;40284;52.878;5.998;2023-02-03T13:03:15;32.50;;;7.22;;
54384;SDS011;40284;52.878;5.998;2023-02-03T13:10:52;36.72;;;6.93;;
54384;SDS011;40284;52.878;5.998;2023-02-03T13:13:22;48.75;;;7.53;;
54384;SDS011;40284;52.878;5.998;2023-02-03T13:15:50;40.20;;;7.18;;
54384;SDS011;40284;52.878;5.998;2023-02-03T13:18:24;37.17;;;7.68;;
54384;SDS011;40284;52.878;5.998;2023-02-03T13:20:52;41.33;;;7.32;;
54384;SDS011;40284;52.878;5.998;2023-02-03T13:23:18;37.25;;;7.88;;
54384;SDS011;40284;52.878;5.998;2023-02-03T13:41:48;42.30;;;7.90;;
54384;SDS011;40284;52.878;5.998;2023-02-03T13:44:17;49.55;;;9.52;;
54384;SDS011;40284;52.878;5.998;2023-02-03T13:46:46;35.10;;;9.20;;
54384;SDS011;40284;52.878;5.998;2023-02-03T13:55:14;54.17;;;8.43;;
54384;SDS011;40284;52.878;5.998;2023-02-03T13:57:50;46.50;;;7.93;;
54384;SDS011;40284;52.878;5.998;2023-02-03T14:03:42;44.42;;;7.45;;
54384;SDS011;40284;52.878;5.998;2023-02-03T14:06:00;33.55;;;7.00;;
54384;SDS011;40284;52.878;5.998;2023-02-03T14:13:38;34.78;;;7.85;;
54384;SDS011;40284;52.878;5.998;2023-02-03T14:17:06;37.10;;;7.50;;
54384;SDS011;40284;52.878;5.998;2023-02-03T14:19:00;39.20;;;8.20;;
54384;SDS011;40284;52.878;5.998;2023-02-03T14:21:26;40.47;;;7.72;;
54384;SDS011;40284;52.878;5.998;2023-02-03T14:24:01;48.67;;;8.52;;
54384;SDS011;40284;52.878;5.998;2023-02-03T14:26:32;43.13;;;7.20;;
54384;SDS011;40284;52.878;5.998;2023-02-03T14:28:59;39.67;;;7.85;;
54384;SDS011;40284;52.878;5.998;2023-02-03T14:31:26;33.92;;;7.00;;
54384;SDS011;40284;52.878;5.998;2023-02-03T14:33:54;42.75;;;8.63;;
54384;SDS011;40284;52.878;5.998;2023-02-03T14:38:53;35.05;;;6.28;;
54384;SDS011;40284;52.878;5.998;2023-02-03T14:41:28;35.63;;;7.32;;
54384;SDS011;40284;52.878;5.998;2023-02-03T15:04:45;35.72;;;6.90;;
54384;SDS011;40284;52.878;5.998;2023-02-03T15:10:15;38.13;;;8.18;;
54384;SDS011;40284;52.878;5.998;2023-02-03T15:12:45;33.97;;;7.10;;
54384;SDS011;40284;52.878;5.998;2023-02-03T15:17:48;32.72;;;6.93;;
54384;SDS011;40284;52.878;5.998;2023-02-03T15:22:59;43.42;;;7.95;;
54384;SDS011;40284;52.878;5.998;2023-02-03T15:25:27;39.78;;;6.75;;
54384;SDS011;40284;52.878;5.998;2023-02-03T15:27:53;44.75;;;8.52;;
54384;SDS011;40284;52.878;5.998;2023-02-03T15:30:23;36.15;;;7.65;;
54384;SDS011;40284;52.878;5.998;2023-02-03T15:32:55;42.92;;;7.07;;
54384;SDS011;40284;52.878;5.998;2023-02-03T15:35:22;44.38;;;7.65;;
54384;SDS011;40284;52.878;5.998;2023-02-03T15:37:55;32.33;;;8.75;;
54384;SDS011;40284;52.878;5.998;2023-02-03T15:40:22;37.97;;;6.82;;
54384;SDS011;40284;52.878;5.998;2023-02-03T15:43:00;32.08;;;7.53;;
54384;SDS011;40284;52.878;5.998;2023-02-03T15:47:59;38.60;;;7.10;;
54384;SDS011;40284;52.878;5.998;2023-02-03T15:50:28;43.45;;;9.13;;
54384;SDS011;40284;52.878;5.998;2023-02-03T15:52:55;38.08;;;7.05;;
54384;SDS011;40284;52.878;5.998;2023-02-03T15:55:33;45.05;;;7.65;;
54384;SDS011;40284;52.878;5.998;2023-02-03T15:58:01;49.25;;;10.02;;
54384;SDS011;40284;52.878;5.998;2023-02-03T16:02:54;41.22;;;8.65;;
54384;SDS011;40284;52.878;5.998;2023-02-03T16:05:30;49.30;;;8.15;;
54384;SDS011;40284;52.878;5.998;2023-02-03T16:07:56;49.88;;;10.02;;
54384;SDS011;40284;52.878;5.998;2023-02-03T16:10:27;56.75;;;12.68;;
54384;SDS011;40284;52.878;5.998;2023-02-03T16:12:53;41.03;;;9.38;;
54384;SDS011;40284;52.878;5.998;2023-02-03T16:15:35;43.53;;;8.90;;
54384;SDS011;40284;52.878;5.998;2023-02-03T16:18:01;56.75;;;9.43;;
54384;SDS011;40284;52.878;5.998;2023-02-03T16:20:27;52.40;;;9.82;;
54384;SDS011;40284;52.878;5.998;2023-02-03T16:25:41;54.60;;;10.30;;
54384;SDS011;40284;52.878;5.998;2023-02-03T16:33:43;57.75;;;9.48;;
54384;SDS011;40284;52.878;5.998;2023-02-03T16:36:28;61.28;;;9.65;;
54384;SDS011;40284;52.878;5.998;2023-02-03T16:39:13;55.58;;;9.90;;
54384;SDS011;40284;52.878;5.998;2023-02-03T16:41:58;51.15;;;8.73;;
54384;SDS011;40284;52.878;5.998;2023-02-03T16:44:44;55.70;;;10.88;;
54384;SDS011;40284;52.878;5.998;2023-02-03T16:47:29;63.15;;;11.23;;
54384;SDS011;40284;52.878;5.998;2023-02-03T16:50:18;65.07;;;10.63;;
54384;SDS011;40284;52.878;5.998;2023-02-03T16:53:03;51.75;;;10.38;;
54384;SDS011;40284;52.878;5.998;2023-02-03T16:55:29;56.72;;;9.43;;
54384;SDS011;40284;52.878;5.998;2023-02-03T16:57:56;58.05;;;10.90;;
54384;SDS011;40284;52.878;5.998;2023-02-03T17:00:22;45.67;;;8.77;;
54384;SDS011;40284;52.878;5.998;2023-02-03T17:02:49;67.35;;;12.60;;
54384;SDS011;40284;52.878;5.998;2023-02-03T17:05:15;49.95;;;8.98;;
54384;SDS011;40284;52.878;5.998;2023-02-03T17:07:41;52.20;;;10.15;;
54384;SDS011;40284;52.878;5.998;2023-02-03T17:10:08;59.70;;;10.32;;
54384;SDS011;40284;52.878;5.998;2023-02-03T17:12:34;47.72;;;10.27;;
54384;SDS011;40284;52.878;5.998;2023-02-03T17:15:02;54.30;;;9.52;;
54384;SDS011;40284;52.878;5.998;2023-02-03T17:17:28;55.60;;;11.30;;
54384;SDS011;40284;52.878;5.998;2023-02-03T17:19:54;43.83;;;9.65;;
54384;SDS011;40284;52.878;5.998;2023-02-03T17:22:21;69.35;;;13.63;;
54384;SDS011;40284;52.878;5.998;2023-02-03T17:24:47;58.70;;;10.02;;
54384;SDS011;40284;52.878;5.998;2023-02-03T17:27:14;52.05;;;9.23;;
54384;SDS011;40284;52.878;5.998;2023-02-03T17:29:40;57.53;;;11.45;;
54384;SDS011;40284;52.878;5.998;2023-02-03T17:32:06;49.05;;;8.90;;
54384;SDS011;40284;52.878;5.998;2023-02-03T17:34:33;61.63;;;10.93;;